Time;durP1;ratioP1;P1;durP2;ratioP2;P2;SDS_P1;SDS_P2;PMS_P1;PMS_P2;Temp;Humidity;BMP_temperature;BMP_pressure;BME280_temperature;BME280_humidity;BME280_pressure;Samples;Min_cycle;Max_cycle;Signal;HPM_P1;HPM_P2
2022/03/07 00:00:40;;;;;;;4.65;3.25;;;;;;;6.75;43.26;101963.62;1776710;79;21012;-76
2022/03/07 00:03:07;;;;;;;3.33;2.92;;;;;;;6.73;43.32;101957.56;1782859;79;21002;-77
2022/03/07 00:05:34;;;;;;;6.87;3.00;;;;;;;6.72;43.50;101954.09;1773935;80;21027;-77
2022/03/07 00:08:01;;;;;;;4.80;2.92;;;;;;;6.73;43.18;101954.97;1773759;79;21005;-76
2022/03/07 00:10:30;;;;;;;3.60;3.30;;;;;;;6.71;42.73;101952.79;1772044;80;21585;-77
2022/03/07 00:12:59;;;;;;;3.87;3.15;;;;;;;6.71;42.81;101951.50;1800105;79;21035;-76
2022/03/07 00:15:26;;;;;;;5.62;3.30;;;;;;;6.71;43.05;101943.73;1770642;78;21035;-77
2022/03/07 00:17:53;;;;;;;4.25;3.62;;;;;;;6.69;43.35;101941.14;1773892;79;20981;-77
2022/03/07 00:20:22;;;;;;;4.78;3.75;;;;;;;6.71;43.66;101937.27;1770498;79;21077;-76
2022/03/07 00:22:49;;;;;;;5.25;4.03;;;;;;;6.71;43.90;101946.33;1773394;79;21036;-76
2022/03/07 00:25:17;;;;;;;4.40;3.70;;;;;;;6.71;43.68;101938.56;1776648;79;21132;-77
2022/03/07 00:27:44;;;;;;;5.40;4.28;;;;;;;6.69;43.64;101937.67;1771338;79;21006;-76
2022/03/07 00:30:11;;;;;;;4.00;3.55;;;;;;;6.70;43.93;101931.67;1784938;78;20990;-77
2022/03/07 00:32:40;;;;;;;4.12;3.65;;;;;;;6.70;43.64;101928.64;1772618;79;21825;-76
2022/03/07 00:35:08;;;;;;;4.80;3.92;;;;;;;6.71;43.81;101925.63;1787907;79;21073;-77
2022/03/07 00:37:38;;;;;;;4.42;3.60;;;;;;;6.70;44.00;101923.91;1776228;80;21546;-77
2022/03/07 00:40:08;;;;;;;4.42;3.47;;;;;;;6.69;44.02;101923.45;1779922;79;21027;-76
2022/03/07 00:42:37;;;;;;;4.45;2.95;;;;;;;6.70;43.81;101921.33;1784452;79;21503;-77
2022/03/07 00:45:09;;;;;;;4.65;3.55;;;;;;;6.70;43.40;101923.91;1777754;80;21046;-77
2022/03/07 00:47:37;;;;;;;4.40;3.27;;;;;;;6.72;43.29;101915.75;1759170;80;21003;-76
2022/03/07 00:50:07;;;;;;;4.58;3.67;;;;;;;6.72;43.16;101914.45;1789249;79;21470;-77
2022/03/07 00:52:35;;;;;;;3.52;3.22;;;;;;;6.71;43.08;101903.64;1778101;79;21057;-76
2022/03/07 00:55:04;;;;;;;3.60;3.22;;;;;;;6.70;42.95;101910.98;1747005;81;21023;-77
2022/03/07 00:57:31;;;;;;;4.22;3.40;;;;;;;6.69;43.10;101906.64;1689881;83;21062;-76
2022/03/07 00:59:58;;;;;;;4.22;3.83;;;;;;;6.68;43.15;101912.68;1714157;82;21042;-76
2022/03/07 01:02:25;;;;;;;4.37;3.60;;;;;;;6.68;43.18;101904.92;1705227;82;21043;-77
2022/03/07 01:04:55;;;;;;;3.95;3.58;;;;;;;6.68;42.99;101906.21;1713849;82;21015;-76
2022/03/07 01:07:23;;;;;;;4.80;3.77;;;;;;;6.67;42.95;101903.17;1706062;82;21128;-76
2022/03/07 01:09:50;;;;;;;3.80;3.40;;;;;;;6.65;42.76;101894.11;1722075;82;20988;-77
2022/03/07 01:12:19;;;;;;;4.17;3.25;;;;;;;6.65;42.83;101890.64;1714253;82;22612;-77
2022/03/07 01:14:48;;;;;;;6.72;3.47;;;;;;;6.66;42.83;101891.10;1722011;82;21071;-77
2022/03/07 01:17:15;;;;;;;4.97;3.95;;;;;;;6.65;43.21;101886.77;1766441;80;21010;-76
2022/03/07 01:19:44;;;;;;;3.80;3.25;;;;;;;6.64;43.24;101884.59;1770699;78;21063;-76
2022/03/07 01:22:11;;;;;;;5.35;4.10;;;;;;;6.64;43.11;101879.42;1764830;79;21049;-76
2022/03/07 01:24:38;;;;;;;3.90;3.40;;;;;;;6.65;43.40;101876.42;1794154;78;21011;-76
2022/03/07 01:27:05;;;;;;;4.12;3.72;;;;;;;6.65;43.23;101872.53;1766770;79;20976;-76
2022/03/07 01:29:34;;;;;;;3.95;3.47;;;;;;;6.64;43.00;101877.25;1773576;80;21575;-76
2022/03/07 01:32:05;;;;;;;3.95;3.20;;;;;;;6.65;43.17;101873.83;1769434;80;21049;-76
2022/03/07 01:34:32;;;;;;;4.60;3.80;;;;;;;6.66;43.10;101880.76;1779882;79;21002;-75
2022/03/07 01:36:59;;;;;;;4.37;3.85;;;;;;;6.67;43.30;101874.72;1768811;79;20972;-76
2022/03/07 01:39:26;;;;;;;4.85;3.80;;;;;;;6.68;43.35;101877.77;1774931;79;21009;-77
2022/03/07 01:41:53;;;;;;;5.08;4.30;;;;;;;6.70;43.11;101872.19;1791420;79;21035;-76
2022/03/07 01:44:23;;;;;;;5.00;4.10;;;;;;;6.69;42.92;101870.43;1791035;79;21019;-76
2022/03/07 01:46:51;;;;;;;6.42;4.60;;;;;;;6.70;43.04;101872.19;1781100;79;21497;-76
2022/03/07 01:49:18;;;;;;;4.80;3.95;;;;;;;6.70;43.00;101865.27;1779351;79;21122;-76
2022/03/07 01:51:46;;;;;;;5.00;4.50;;;;;;;6.71;43.29;101867.44;1777464;79;21167;-77
2022/03/07 01:54:15;;;;;;;4.45;4.05;;;;;;;6.71;43.27;101863.55;1785807;79;21022;-76
2022/03/07 01:56:46;;;;;;;4.85;4.25;;;;;;;6.69;43.23;101860.08;1779105;78;21486;-76
2022/03/07 01:59:14;;;;;;;4.40;4.00;;;;;;;6.66;43.27;101856.19;1752054;80;21057;-77
2022/03/07 02:01:42;;;;;;;5.75;4.47;;;;;;;6.66;43.83;101857.48;1797138;78;20995;-76
2022/03/07 02:04:09;;;;;;;5.25;4.22;;;;;;;6.66;42.98;101853.60;1785632;79;21038;-76
2022/03/07 02:06:38;;;;;;;6.33;4.40;;;;;;;6.65;42.90;101853.14;1794744;78;21010;-76
2022/03/07 02:09:08;;;;;;;3.98;3.55;;;;;;;6.63;43.03;101856.14;1770940;79;21033;-76
2022/03/07 02:11:37;;;;;;;6.10;4.78;;;;;;;6.62;42.93;101854.38;1776673;79;21005;-76
2022/03/07 02:14:19;;;;;;;6.22;4.37;;;;;;;6.63;42.59;101854.42;1780001;79;21096;-76
2022/03/07 02:16:49;;;;;;;6.00;4.30;;;;;;;6.62;42.90;101846.63;1786373;79;20983;-77
2022/03/07 02:19:18;;;;;;;5.78;4.83;;;;;;;6.63;43.11;101847.08;1781509;79;21054;-76
2022/03/07 02:21:50;;;;;;;5.67;4.65;;;;;;;6.64;43.14;101842.34;1775731;79;20963;-76
2022/03/07 02:24:21;;;;;;;12.00;5.20;;;;;;;6.64;42.98;101843.63;1795234;79;21117;-77
2022/03/07 02:26:59;;;;;;;6.12;4.87;;;;;;;6.63;43.22;101838.03;1789104;79;21042;-76
2022/03/07 02:29:27;;;;;;;4.58;4.17;;;;;;;6.65;43.50;101840.21;1765095;79;21032;-77
2022/03/07 02:31:56;;;;;;;6.58;4.85;;;;;;;6.65;43.29;101840.21;1779325;79;21029;-76
2022/03/07 02:34:24;;;;;;;5.85;4.72;;;;;;;6.65;43.43;101835.04;1761363;79;21061;-76
2022/03/07 02:36:51;;;;;;;5.45;4.80;;;;;;;6.63;43.50;101836.74;1794764;79;20980;-77
2022/03/07 02:39:19;;;;;;;5.95;4.62;;;;;;;6.62;43.73;101835.86;1774482;79;21557;-77
2022/03/07 02:41:47;;;;;;;6.83;5.05;;;;;;;6.61;43.94;101831.56;1773003;79;21559;-76
2022/03/07 02:44:14;;;;;;;5.92;5.30;;;;;;;6.62;44.01;101833.70;1764603;80;21483;-76
2022/03/07 02:46:42;;;;;;;6.25;4.78;;;;;;;6.61;44.08;101829.39;1773254;79;21057;-77
2022/03/07 02:49:09;;;;;;;6.53;5.20;;;;;;;6.61;44.11;101823.80;1792980;79;21382;-76
2022/03/07 02:51:37;;;;;;;7.80;5.45;;;;;;;6.61;44.30;101821.22;1798715;79;21024;-75
2022/03/07 02:54:05;;;;;;;7.20;5.28;;;;;;;6.63;44.58;101825.10;1777951;79;21007;-76
2022/03/07 02:56:32;;;;;;;6.60;5.00;;;;;;;6.64;44.71;101831.99;1783091;78;21612;-76
2022/03/07 02:58:59;;;;;;;6.00;5.25;;;;;;;6.65;44.98;101827.28;1790937;79;21025;-76
2022/03/07 03:01:27;;;;;;;6.80;5.03;;;;;;;6.67;44.88;101831.62;1783921;79;20999;-77
2022/03/07 03:03:54;;;;;;;5.92;4.70;;;;;;;6.68;44.57;101828.62;1776977;79;21538;-77
2022/03/07 03:06:21;;;;;;;6.25;5.22;;;;;;;6.66;44.60;101829.03;1762469;80;21034;-77
2022/03/07 03:08:48;;;;;;;5.20;4.65;;;;;;;6.63;44.55;101825.10;1778278;80;21557;-76
2022/03/07 03:11:15;;;;;;;6.17;4.87;;;;;;;6.62;44.40;101817.77;1753763;80;21006;-76
2022/03/07 03:13:42;;;;;;;6.40;5.15;;;;;;;6.61;44.38;101813.88;1778911;79;21004;-77
2022/03/07 03:16:10;;;;;;;5.80;4.55;;;;;;;6.61;44.26;101815.16;1787132;79;21070;-76
2022/03/07 03:18:37;;;;;;;5.58;4.90;;;;;;;6.59;44.39;101813.87;1775860;79;21550;-76
2022/03/07 03:21:04;;;;;;;6.22;4.55;;;;;;;6.58;44.53;101819.45;1765259;79;21534;-76
2022/03/07 03:23:31;;;;;;;5.60;4.65;;;;;;;6.57;44.59;101812.53;1761817;80;21057;-76
2022/03/07 03:25:58;;;;;;;8.25;4.53;;;;;;;6.56;44.71;101805.64;1766900;80;21034;-77
2022/03/07 03:28:26;;;;;;;5.67;4.72;;;;;;;6.56;44.57;101810.81;1770721;80;21007;-77
2022/03/07 03:30:53;;;;;;;6.30;5.30;;;;;;;6.54;44.50;101806.05;1750660;80;21010;-76
2022/03/07 03:33:20;;;;;;;6.72;5.58;;;;;;;6.52;44.64;101806.45;1780724;80;21058;-77
2022/03/07 03:35:47;;;;;;;5.90;5.17;;;;;;;6.53;44.89;101808.17;1772986;80;21006;-76
2022/03/07 03:38:14;;;;;;;5.55;4.85;;;;;;;6.53;45.15;101805.59;1771822;80;21462;-77
2022/03/07 03:40:44;;;;;;;6.42;5.20;;;;;;;6.54;45.29;101803.47;1771920;80;21022;-76
2022/03/07 03:43:11;;;;;;;6.40;5.20;;;;;;;6.55;45.10;101805.19;1760408;80;21022;-77
2022/03/07 03:45:38;;;;;;;7.45;5.53;;;;;;;6.54;45.02;101799.59;1764441;80;21510;-77
2022/03/07 03:48:07;;;;;;;7.15;5.65;;;;;;;6.53;45.10;101800.42;1751132;80;21027;-76
2022/03/07 03:50:34;;;;;;;7.37;5.85;;;;;;;6.51;45.22;101791.78;1766761;80;21018;-76
2022/03/07 03:53:01;;;;;;;6.37;5.47;;;;;;;6.49;45.34;101799.10;1776419;78;20991;-76
2022/03/07 03:55:28;;;;;;;6.62;5.92;;;;;;;6.48;45.08;101799.52;1776809;80;21066;-77
2022/03/07 03:57:57;;;;;;;6.72;5.92;;;;;;;6.45;45.15;101796.88;1779206;79;21067;-76
2022/03/07 04:00:24;;;;;;;8.35;5.95;;;;;;;6.45;45.54;101800.77;1760114;80;21133;-76
2022/03/07 04:02:51;;;;;;;7.97;6.12;;;;;;;6.47;45.72;101802.94;1787102;79;20971;-76
2022/03/07 04:05:18;;;;;;;8.25;6.58;;;;;;;6.48;45.65;101798.64;1790495;79;21510;-76
2022/03/07 04:07:45;;;;;;;8.58;6.67;;;;;;;6.48;45.90;101799.52;1778116;79;22101;-76
2022/03/07 04:10:15;;;;;;;8.78;7.35;;;;;;;6.48;46.34;101795.64;1757519;79;21030;-77
2022/03/07 04:12:42;;;;;;;7.92;6.25;;;;;;;6.50;46.41;101791.77;1777795;79;20995;-76
2022/03/07 04:15:10;;;;;;;8.58;7.12;;;;;;;6.50;46.51;101794.36;1785710;79;20999;-77
2022/03/07 04:17:39;;;;;;;7.33;6.55;;;;;;;6.50;46.53;101791.36;1791906;79;21053;-77
2022/03/07 04:20:07;;;;;;;8.43;7.28;;;;;;;6.49;46.63;101785.72;1774242;79;21022;-77
2022/03/07 04:22:37;;;;;;;8.28;7.03;;;;;;;6.52;46.71;101785.77;1779601;79;20995;-76
2022/03/07 04:25:07;;;;;;;8.60;7.20;;;;;;;6.52;46.61;101784.89;1788614;79;21011;-77
2022/03/07 04:27:34;;;;;;;10.23;6.47;;;;;;;6.53;46.52;101779.73;1761093;80;20992;-77
2022/03/07 04:30:03;;;;;;;8.68;6.90;;;;;;;6.53;46.10;101782.32;1770668;80;21042;-77
2022/03/07 04:32:33;;;;;;;9.25;6.87;;;;;;;6.54;45.93;101775.02;1778594;79;21105;-76
2022/03/07 04:35:00;;;;;;;8.98;6.50;;;;;;;6.54;45.92;101769.84;1788602;79;21003;-77
2022/03/07 04:37:27;;;;;;;7.03;6.33;;;;;;;6.55;45.94;101772.02;1774566;80;21565;-76
2022/03/07 04:39:53;;;;;;;7.75;6.65;;;;;;;6.57;45.96;101775.48;1773402;80;21530;-77
2022/03/07 04:42:21;;;;;;;8.33;6.70;;;;;;;6.58;45.69;101772.03;1773831;80;21011;-77
2022/03/07 04:44:47;;;;;;;7.83;6.22;;;;;;;6.57;45.77;101765.98;1781645;80;21109;-76
2022/03/07 04:47:15;;;;;;;7.10;6.00;;;;;;;6.58;45.68;101766.45;1774985;79;21062;-77
2022/03/07 04:49:42;;;;;;;8.60;6.60;;;;;;;6.59;45.80;101761.70;1776862;79;20963;-76
2022/03/07 04:52:09;;;;;;;7.53;6.25;;;;;;;6.59;45.80;101753.09;1764726;79;20999;-77
2022/03/07 04:54:36;;;;;;;8.60;5.97;;;;;;;6.61;45.81;101760.86;1759746;80;20996;-77
2022/03/07 04:57:04;;;;;;;7.37;6.28;;;;;;;6.61;45.74;101758.27;1785128;79;21032;-76
2022/03/07 04:59:31;;;;;;;7.53;6.03;;;;;;;6.60;45.40;101757.40;1760737;80;21104;-77
2022/03/07 05:01:58;;;;;;;7.58;6.28;;;;;;;6.61;45.08;101754.39;1789260;79;20971;-77
2022/03/07 05:04:26;;;;;;;6.65;5.90;;;;;;;6.59;45.15;101761.70;1780119;79;21025;-76
2022/03/07 05:06:53;;;;;;;7.65;6.28;;;;;;;6.59;45.30;101756.52;1778715;79;21065;-76
2022/03/07 05:09:20;;;;;;;7.05;5.87;;;;;;;6.59;44.95;101751.35;1757094;79;21053;-76
2022/03/07 05:11:47;;;;;;;9.63;6.72;;;;;;;6.61;44.94;101758.27;1775328;79;21070;-76
2022/03/07 05:14:15;;;;;;;8.25;6.08;;;;;;;6.60;45.19;101756.11;1791772;79;21017;-77
2022/03/07 05:16:44;;;;;;;7.25;6.00;;;;;;;6.63;45.32;101756.57;1793634;79;21044;-77
2022/03/07 05:19:11;;;;;;;7.75;6.45;;;;;;;6.64;45.07;101762.17;1773220;77;21026;-78
2022/03/07 05:21:40;;;;;;;7.30;5.90;;;;;;;6.67;45.12;101758.33;1772154;80;21000;-76
2022/03/07 05:24:07;;;;;;;6.97;5.30;;;;;;;6.71;44.80;101756.22;1772049;79;21023;-76
2022/03/07 05:26:35;;;;;;;6.17;5.08;;;;;;;6.72;44.31;101758.81;1773490;79;21059;-78
2022/03/07 05:29:03;;;;;;;6.40;5.47;;;;;;;6.75;44.33;101757.56;1762933;80;21039;-76
2022/03/07 05:31:30;;;;;;;5.78;5.20;;;;;;;6.77;44.28;101753.69;1765270;80;21051;-77
2022/03/07 05:33:57;;;;;;;7.70;5.55;;;;;;;6.78;43.93;101754.98;1773697;79;21058;-77
2022/03/07 05:36:24;;;;;;;6.92;5.47;;;;;;;6.79;43.93;101748.10;1766173;80;20978;-76
2022/03/07 05:38:51;;;;;;;6.60;5.60;;;;;;;6.79;44.06;101754.16;1784397;79;21027;-77
2022/03/07 05:41:18;;;;;;;6.85;5.80;;;;;;;6.79;44.18;101751.98;1776374;79;21591;-77
2022/03/07 05:43:46;;;;;;;7.35;6.15;;;;;;;6.81;44.01;101750.28;1791824;79;21538;-77
2022/03/07 05:46:13;;;;;;;7.83;6.33;;;;;;;6.81;44.03;101745.98;1765315;79;21007;-77
2022/03/07 05:48:40;;;;;;;11.35;7.03;;;;;;;6.82;44.08;101746.41;1711454;82;21038;-77
2022/03/07 05:51:07;;;;;;;8.73;6.78;;;;;;;6.82;44.25;101746.86;1719349;82;21009;-77
2022/03/07 05:53:34;;;;;;;8.55;6.95;;;;;;;6.83;44.53;101748.57;1766761;79;21042;-77
2022/03/07 05:56:02;;;;;;;8.80;7.20;;;;;;;6.83;44.64;101747.28;1769471;80;21132;-77
2022/03/07 05:58:29;;;;;;;9.30;7.35;;;;;;;6.83;44.98;101748.57;1772562;80;21055;-76
2022/03/07 06:00:56;;;;;;;9.65;7.05;;;;;;;6.85;45.06;101748.16;1754678;80;21038;-76
2022/03/07 06:03:23;;;;;;;7.60;6.80;;;;;;;6.88;45.02;101749.50;1707607;83;21065;-77
2022/03/07 06:05:50;;;;;;;7.10;6.12;;;;;;;6.91;44.81;101748.21;1706245;83;21042;-76
2022/03/07 06:08:17;;;;;;;6.80;5.70;;;;;;;6.95;44.46;101751.27;1705374;83;21027;-78
2022/03/07 06:10:46;;;;;;;6.50;5.72;;;;;;;6.97;43.95;101743.96;1695412;81;21007;-76
2022/03/07 06:13:14;;;;;;;6.37;5.03;;;;;;;7.00;43.57;101747.88;1713159;82;21002;-76
2022/03/07 06:15:43;;;;;;;7.00;5.45;;;;;;;7.01;43.24;101750.89;1783951;79;21525;-77
2022/03/07 06:18:11;;;;;;;7.33;5.40;;;;;;;7.04;42.89;101746.18;1782129;79;21038;-75
2022/03/07 06:20:38;;;;;;;6.67;5.37;;;;;;;7.06;42.73;101740.59;1783946;79;21359;-76
2022/03/07 06:23:05;;;;;;;6.35;5.22;;;;;;;7.08;42.22;101741.47;1786629;79;21072;-76
2022/03/07 06:25:36;;;;;;;5.97;5.00;;;;;;;7.10;41.85;101744.94;1780673;79;20997;-76
2022/03/07 06:28:03;;;;;;;5.45;4.78;;;;;;;7.12;41.77;101741.52;1792925;79;21073;-76
2022/03/07 06:30:32;;;;;;;9.55;5.45;;;;;;;7.14;41.55;101739.80;1778364;79;21479;-76
2022/03/07 06:32:59;;;;;;;5.05;4.55;;;;;;;7.17;41.44;101736.38;1793168;79;20998;-76
2022/03/07 06:35:26;;;;;;;6.10;4.90;;;;;;;7.18;41.39;101733.80;1795823;79;21003;-76
2022/03/07 06:37:53;;;;;;;5.40;4.67;;;;;;;7.20;41.17;101738.97;1777277;79;20969;-77
2022/03/07 06:40:21;;;;;;;5.72;4.75;;;;;;;7.22;40.97;101737.27;1787025;79;20995;-76
2022/03/07 06:42:48;;;;;;;6.45;4.60;;;;;;;7.24;40.75;101743.31;1778026;78;21052;-77
2022/03/07 06:45:16;;;;;;;4.97;4.47;;;;;;;7.27;40.67;101740.77;1785603;79;20993;-77
2022/03/07 06:47:44;;;;;;;4.80;4.30;;;;;;;7.31;40.70;101737.34;1786682;79;20975;-76
2022/03/07 06:50:12;;;;;;;6.00;4.80;;;;;;;7.35;40.47;101739.09;1784247;79;21022;-76
2022/03/07 06:52:39;;;;;;;4.95;4.45;;;;;;;7.36;40.31;101735.63;1788212;79;21007;-76
2022/03/07 06:55:06;;;;;;;5.50;4.45;;;;;;;7.38;40.47;101732.63;1784724;79;21029;-75
2022/03/07 06:57:33;;;;;;;5.50;4.70;;;;;;;7.40;40.53;101729.62;1753458;80;20979;-75
2022/03/07 07:00:00;;;;;;;5.78;4.45;;;;;;;7.42;40.60;101726.61;1768368;80;21019;-77
2022/03/07 07:02:27;;;;;;;5.05;4.45;;;;;;;7.44;40.71;101726.19;1769667;80;20994;-75
2022/03/07 07:04:54;;;;;;;5.33;4.72;;;;;;;7.45;40.54;101719.30;1762592;80;21014;-77
2022/03/07 07:07:21;;;;;;;4.45;3.92;;;;;;;7.48;40.39;101724.51;1747971;80;21006;-77
2022/03/07 07:09:50;;;;;;;4.00;3.52;;;;;;;7.49;40.23;101718.03;1767335;80;21509;-76
2022/03/07 07:12:17;;;;;;;5.05;3.50;;;;;;;7.51;39.39;101719.33;1766538;80;21493;-77
2022/03/07 07:14:44;;;;;;;3.15;2.85;;;;;;;7.51;39.20;101713.73;1776285;79;21478;-77
2022/03/07 07:17:12;;;;;;;3.52;2.90;;;;;;;7.54;39.38;101715.48;1769781;79;21030;-77
2022/03/07 07:19:39;;;;;;;4.40;3.33;;;;;;;7.56;38.76;101708.16;1765815;80;21020;-77
2022/03/07 07:22:06;;;;;;;3.77;2.98;;;;;;;7.59;38.39;101698.22;1780880;79;20991;-77
2022/03/07 07:24:33;;;;;;;3.90;2.80;;;;;;;7.62;38.07;101687.89;1797919;79;21038;-77
2022/03/07 07:27:00;;;;;;;3.00;2.65;;;;;;;7.66;38.24;101693.53;1779692;79;21007;-76
2022/03/07 07:29:28;;;;;;;2.55;2.35;;;;;;;7.68;38.35;101689.22;1771091;80;21093;-77
2022/03/07 07:31:55;;;;;;;3.87;2.75;;;;;;;7.71;37.89;101690.09;1775236;79;21087;-77
2022/03/07 07:34:22;;;;;;;2.60;2.33;;;;;;;7.74;37.48;101687.53;1774274;80;21027;-77
2022/03/07 07:36:50;;;;;;;2.37;2.17;;;;;;;7.79;36.51;101687.55;1776419;78;21040;-77
2022/03/07 07:39:17;;;;;;;3.27;2.45;;;;;;;7.83;36.26;101682.37;1792508;79;21545;-78
2022/03/07 07:41:44;;;;;;;2.40;2.17;;;;;;;7.88;36.03;101681.09;1771700;79;21581;-77
2022/03/07 07:44:12;;;;;;;2.58;2.30;;;;;;;7.92;36.08;101680.25;1796002;79;21065;-78
2022/03/07 07:46:38;;;;;;;2.70;2.33;;;;;;;7.96;35.43;101684.16;1784253;79;20970;-78
2022/03/07 07:49:05;;;;;;;4.08;2.30;;;;;;;8.01;35.38;101685.05;1771294;79;21040;-79
2022/03/07 07:51:33;;;;;;;2.70;2.00;;;;;;;8.08;35.48;101679.01;1787449;79;21161;-78
2022/03/07 07:54:00;;;;;;;2.30;2.08;;;;;;;8.13;35.51;101676.02;1776652;79;21049;-77
2022/03/07 07:56:27;;;;;;;2.47;2.22;;;;;;;8.21;35.11;101678.20;1768604;80;21021;-78
2022/03/07 07:58:54;;;;;;;2.72;2.15;;;;;;;8.27;34.88;101682.55;1756550;80;21011;-77
2022/03/07 08:01:22;;;;;;;3.65;2.80;;;;;;;8.34;34.95;101678.25;1761901;79;21031;-78
2022/03/07 08:03:48;;;;;;;3.70;2.85;;;;;;;8.40;35.04;101667.89;1776365;80;21034;-78
2022/03/07 08:06:15;;;;;;;3.05;2.58;;;;;;;8.45;34.50;101663.59;1782706;79;21499;-78
2022/03/07 08:08:43;;;;;;;2.72;2.10;;;;;;;8.50;34.40;101661.84;1773513;79;21054;-78
2022/03/07 08:11:10;;;;;;;2.67;2.45;;;;;;;8.54;34.56;101664.45;1757460;80;21006;-77
2022/03/07 08:13:37;;;;;;;3.17;2.62;;;;;;;8.57;34.15;101658.41;1776603;79;21566;-78
2022/03/07 08:16:04;;;;;;;2.52;2.17;;;;;;;8.62;34.02;101664.44;1780030;79;21596;-78
2022/03/07 08:18:32;;;;;;;3.17;2.47;;;;;;;8.66;33.87;101657.09;1796428;79;21038;-78
2022/03/07 08:21:00;;;;;;;3.50;2.52;;;;;;;8.71;34.20;101656.68;1781878;79;21026;-78
2022/03/07 08:23:28;;;;;;;2.47;2.15;;;;;;;8.75;34.45;101657.11;1785185;79;21503;-78
2022/03/07 08:25:55;;;;;;;2.67;2.35;;;;;;;8.76;34.44;101656.23;1781414;79;21009;-78
2022/03/07 08:28:23;;;;;;;2.92;2.22;;;;;;;8.78;34.34;101657.09;1761406;80;21046;-78
2022/03/07 08:30:50;;;;;;;3.15;2.45;;;;;;;8.79;34.60;101662.73;1779002;79;21483;-78
2022/03/07 08:33:17;;;;;;;2.45;2.25;;;;;;;8.77;34.65;101656.67;1773516;79;21465;-78
2022/03/07 08:35:45;;;;;;;3.02;2.33;;;;;;;8.78;34.80;101655.80;1761086;80;21570;-78
2022/03/07 08:38:12;;;;;;;3.27;2.47;;;;;;;8.79;34.57;101657.12;1769214;80;21085;-79
2022/03/07 08:40:39;;;;;;;4.10;2.65;;;;;;;8.79;34.57;101649.76;1765455;80;20995;-77
2022/03/07 08:43:06;;;;;;;2.55;2.35;;;;;;;8.79;34.37;101648.03;1770178;79;21002;-77
2022/03/07 08:45:34;;;;;;;2.83;2.15;;;;;;;8.78;34.49;101648.02;1772482;79;21014;-78
2022/03/07 08:48:01;;;;;;;2.25;2.02;;;;;;;8.77;34.46;101648.89;1765265;79;20987;-77
2022/03/07 08:50:28;;;;;;;2.70;2.45;;;;;;;8.75;34.75;101651.92;1775404;79;21065;-77
2022/03/07 08:52:55;;;;;;;2.35;2.15;;;;;;;8.74;35.26;101648.88;1772887;79;21565;-77
2022/03/07 08:55:22;;;;;;;2.98;2.70;;;;;;;8.75;35.55;101649.33;1785598;79;21034;-78
2022/03/07 08:57:49;;;;;;;2.87;2.52;;;;;;;8.76;35.51;101653.20;1772339;79;21042;-78
2022/03/07 09:00:17;;;;;;;2.58;2.33;;;;;;;8.74;35.29;101651.47;1767479;80;21047;-78
2022/03/07 09:02:44;;;;;;;3.72;2.62;;;;;;;8.72;36.14;101650.61;1762234;79;20987;-77
2022/03/07 09:05:11;;;;;;;3.08;2.22;;;;;;;8.72;36.43;101648.02;1781872;79;20995;-77
2022/03/07 09:07:38;;;;;;;2.85;2.10;;;;;;;8.72;36.64;101652.78;1763408;79;21070;-78
2022/03/07 09:10:08;;;;;;;4.33;2.72;;;;;;;8.72;36.64;101649.31;1790513;79;20992;-79
2022/03/07 09:12:36;;;;;;;3.08;2.60;;;;;;;8.73;36.87;101655.82;1748482;79;21003;-79
2022/03/07 09:15:04;;;;;;;2.80;2.60;;;;;;;8.74;36.94;101654.94;1721957;83;21053;-78
2022/03/07 09:17:32;;;;;;;2.47;2.08;;;;;;;8.75;37.01;101655.81;1710140;82;21062;-78
2022/03/07 09:20:00;;;;;;;4.42;2.65;;;;;;;8.75;36.72;101651.92;1782166;79;21000;-78
2022/03/07 09:22:27;;;;;;;4.12;2.58;;;;;;;8.74;36.89;101649.75;1769740;80;21001;-79
2022/03/07 09:24:54;;;;;;;3.17;2.87;;;;;;;8.73;36.81;101643.27;1774395;80;21046;-78
2022/03/07 09:27:22;;;;;;;3.50;3.20;;;;;;;8.74;37.43;101648.88;1768431;80;20954;-77
2022/03/07 09:29:49;;;;;;;5.12;2.98;;;;;;;8.75;37.49;101648.03;1770961;79;21494;-78
2022/03/07 09:32:16;;;;;;;3.22;2.90;;;;;;;8.75;37.77;101638.52;1780999;79;21592;-79
2022/03/07 09:34:43;;;;;;;4.35;3.95;;;;;;;8.73;37.99;101637.66;1775797;79;21027;-77
2022/03/07 09:37:10;;;;;;;3.77;3.35;;;;;;;8.67;37.91;101639.38;1776473;78;20995;-78
2022/03/07 09:39:38;;;;;;;2.90;2.70;;;;;;;8.62;38.22;101640.67;1786462;79;21046;-78
2022/03/07 09:42:06;;;;;;;3.10;2.72;;;;;;;8.59;38.53;101638.52;1761063;79;21112;-78
2022/03/07 09:44:33;;;;;;;4.08;3.67;;;;;;;8.54;38.33;101638.94;1776157;79;21533;-77
2022/03/07 09:47:01;;;;;;;3.25;2.95;;;;;;;8.49;38.04;101629.01;1772640;79;21996;-77
2022/03/07 09:49:28;;;;;;;3.70;3.15;;;;;;;8.38;37.93;101632.88;1796970;79;21540;-77
2022/03/07 09:51:55;;;;;;;4.53;3.83;;;;;;;8.31;38.12;101632.43;1790932;79;21565;-78
2022/03/07 09:54:23;;;;;;;3.00;2.70;;;;;;;8.22;38.24;101630.65;1787528;79;21828;-78
2022/03/07 09:56:51;;;;;;;3.37;3.08;;;;;;;8.17;38.36;101632.38;1774389;79;21128;-79
2022/03/07 09:59:19;;;;;;;4.17;2.92;;;;;;;8.14;38.98;101628.47;1765984;79;21557;-78
2022/03/07 10:01:46;;;;;;;3.58;2.83;;;;;;;8.17;38.57;101633.68;1772470;80;21537;-78
2022/03/07 10:04:13;;;;;;;3.67;2.72;;;;;;;8.11;38.38;101623.30;1769616;79;20983;-78
2022/03/07 10:06:50;;;;;;;5.22;2.90;;;;;;;8.09;38.80;101621.14;1772217;79;21546;-78
2022/03/07 10:09:23;;;;;;;3.15;2.85;;;;;;;8.12;38.76;101618.53;1769693;79;21509;-78
2022/03/07 10:11:54;;;;;;;3.58;2.85;;;;;;;8.15;38.83;101615.97;1709609;81;21079;-78
2022/03/07 10:14:47;;;;;;;5.80;3.05;;;;;;;8.15;38.36;101615.97;1668799;85;21691;-78
2022/03/07 10:17:27;;;;;;;4.35;3.35;;;;;;;8.13;38.53;101611.62;1648932;85;21075;-78
2022/03/07 10:19:56;;;;;;;4.45;4.03;;;;;;;8.08;38.44;101615.50;1656925;85;21118;-78
2022/03/07 10:22:26;;;;;;;4.90;4.40;;;;;;;8.07;38.72;101613.80;1664781;85;21066;-78
2022/03/07 10:25:07;;;;;;;5.37;4.37;;;;;;;8.08;38.95;101608.16;1660014;85;21057;-78
2022/03/07 10:27:38;;;;;;;5.28;4.55;;;;;;;8.09;39.30;101601.70;1662902;85;21003;-77
2022/03/07 10:30:18;;;;;;;5.17;4.40;;;;;;;8.14;38.66;101603.84;1671922;84;21109;-78
2022/03/07 10:33:01;;;;;;;4.12;3.45;;;;;;;8.13;39.25;101601.27;1664641;85;21506;-78
2022/03/07 10:35:32;;;;;;;3.58;3.15;;;;;;;8.18;38.87;101597.80;1647569;86;21058;-77
2022/03/07 10:38:06;;;;;;;3.40;3.10;;;;;;;8.24;38.26;101595.22;1649725;86;21098;-78
2022/03/07 10:40:36;;;;;;;3.85;3.42;;;;;;;8.32;38.34;101591.81;1566759;90;21080;-77
2022/03/07 10:43:04;;;;;;;3.77;3.02;;;;;;;8.39;38.30;101593.56;1573237;90;21284;-78
2022/03/07 10:45:34;;;;;;;3.50;3.20;;;;;;;8.48;38.71;101592.25;1560857;90;21096;-78
2022/03/07 10:48:04;;;;;;;4.90;4.15;;;;;;;8.59;38.79;101584.05;1571217;90;21540;-78
2022/03/07 10:50:31;;;;;;;4.45;3.90;;;;;;;8.67;38.51;101588.79;1567275;90;21136;-78
2022/03/07 10:53:06;;;;;;;13.32;9.50;;;;;;;8.70;38.12;101586.17;1566498;90;21041;-78
2022/03/07 10:55:34;;;;;;;5.65;5.05;;;;;;;8.69;37.61;101580.57;1572847;90;21112;-78
2022/03/07 10:58:13;;;;;;;5.60;5.00;;;;;;;8.60;37.28;101573.66;1558916;91;21597;-79
2022/03/07 11:00:52;;;;;;;8.78;5.20;;;;;;;8.54;37.63;101577.98;1557457;90;21129;-79
2022/03/07 11:03:21;;;;;;;6.40;5.80;;;;;;;8.46;37.42;101566.31;1515183;93;21094;-78
2022/03/07 11:05:48;;;;;;;9.40;7.62;;;;;;;8.41;37.82;101560.70;1526669;92;21142;-78
2022/03/07 11:08:16;;;;;;;9.53;7.78;;;;;;;8.40;37.43;101561.14;1527658;93;21068;-78
2022/03/07 11:10:46;;;;;;;7.05;5.83;;;;;;;8.37;37.39;101553.77;1527132;92;21141;-78
2022/03/07 11:13:14;;;;;;;9.38;6.05;;;;;;;8.37;37.61;101553.77;1485110;96;21145;-78
2022/03/07 11:15:43;;;;;;;7.05;6.00;;;;;;;8.38;37.77;101546.44;1503533;94;21092;-78
2022/03/07 11:18:14;;;;;;;7.12;5.80;;;;;;;8.42;37.62;101544.27;1477448;96;21101;-78
2022/03/07 11:20:43;;;;;;;5.37;4.58;;;;;;;8.49;37.83;101538.23;1457849;96;21171;-78
2022/03/07 11:23:17;;;;;;;5.03;4.53;;;;;;;8.56;37.32;101537.33;1480593;95;21101;-78
2022/03/07 11:25:45;;;;;;;5.00;4.28;;;;;;;8.61;36.93;101537.78;1466983;96;21600;-77
2022/03/07 11:28:12;;;;;;;3.85;3.45;;;;;;;8.63;36.55;101538.64;1468702;96;22028;-78
2022/03/07 11:30:42;;;;;;;4.00;3.05;;;;;;;8.66;36.36;101533.44;1499517;94;21174;-78
2022/03/07 11:33:12;;;;;;;3.67;3.37;;;;;;;8.68;35.98;101534.72;1498520;95;21157;-79
2022/03/07 11:35:47;;;;;;;3.92;3.52;;;;;;;8.74;35.96;101529.52;1499625;95;21082;-78
2022/03/07 11:38:28;;;;;;;4.35;2.90;;;;;;;8.79;35.56;101531.26;1518390;93;21121;-79